sensor_id;sensor_type;location;lat;lon;timestamp;pressure;altitude;pressure_sealevel;temperature;humidity
28004;BME280;15330;51.234;6.754;2024-01-25T00:00:40;102397.13;;;8.87;79.49
28004;BME280;15330;51.234;6.754;2024-01-25T00:03:06;102399.47;;;8.93;79.26
28004;BME280;15330;51.234;6.754;2024-01-25T00:05:31;102396.69;;;9.12;78.26
28004;BME280;15330;51.234;6.754;2024-01-25T00:07:57;102397.34;;;9.00;79.15
28004;BME280;15330;51.234;6.754;2024-01-25T00:10:23;102397.34;;;9.00;79.23
28004;BME280;15330;51.234;6.754;2024-01-25T00:12:48;102391.50;;;9.09;78.78
28004;BME280;15330;51.234;6.754;2024-01-25T00:15:14;102400.59;;;9.05;78.91
28004;BME280;15330;51.234;6.754;2024-01-25T00:17:39;102406.00;;;8.88;79.54
28004;BME280;15330;51.234;6.754;2024-01-25T00:20:05;102403.91;;;8.77;80.30
28004;BME280;15330;51.234;6.754;2024-01-25T00:22:31;102401.63;;;8.86;80.13
28004;BME280;15330;51.234;6.754;2024-01-25T00:24:57;102401.47;;;8.90;79.79
28004;BME280;15330;51.234;6.754;2024-01-25T00:27:23;102412.34;;;9.02;79.27
28004;BME280;15330;51.234;6.754;2024-01-25T00:29:48;102403.25;;;8.89;79.27
28004;BME280;15330;51.234;6.754;2024-01-25T00:32:14;102402.53;;;9.03;79.05
28004;BME280;15330;51.234;6.754;2024-01-25T00:34:39;102400.94;;;8.83;79.74
28004;BME280;15330;51.234;6.754;2024-01-25T00:37:05;102407.59;;;8.74;80.40
28004;BME280;15330;51.234;6.754;2024-01-25T00:39:31;102414.81;;;8.72;80.38
28004;BME280;15330;51.234;6.754;2024-01-25T00:42:03;102405.22;;;8.85;79.96
28004;BME280;15330;51.234;6.754;2024-01-25T00:44:29;102405.53;;;8.79;80.23
28004;BME280;15330;51.234;6.754;2024-01-25T00:46:55;102411.88;;;8.94;79.40
28004;BME280;15330;51.234;6.754;2024-01-25T00:49:20;102414.66;;;8.75;80.16
28004;BME280;15330;51.234;6.754;2024-01-25T00:51:47;102417.09;;;8.80;80.01
28004;BME280;15330;51.234;6.754;2024-01-25T00:54:16;102415.84;;;8.70;80.47
28004;BME280;15330;51.234;6.754;2024-01-25T00:56:42;102410.34;;;8.73;80.36
28004;BME280;15330;51.234;6.754;2024-01-25T00:59:08;102414.44;;;8.62;80.56
28004;BME280;15330;51.234;6.754;2024-01-25T01:01:33;102412.94;;;8.57;80.88
28004;BME280;15330;51.234;6.754;2024-01-25T01:03:59;102412.94;;;8.57;80.80
28004;BME280;15330;51.234;6.754;2024-01-25T01:06:25;102411.00;;;8.60;80.61
28004;BME280;15330;51.234;6.754;2024-01-25T01:08:51;102404.94;;;8.57;81.03
28004;BME280;15330;51.234;6.754;2024-01-25T01:11:18;102412.56;;;8.47;81.00
28004;BME280;15330;51.234;6.754;2024-01-25T01:13:43;102412.72;;;8.44;81.00
28004;BME280;15330;51.234;6.754;2024-01-25T01:16:08;102408.03;;;8.49;81.08
28004;BME280;15330;51.234;6.754;2024-01-25T01:18:34;102408.66;;;8.54;80.53
28004;BME280;15330;51.234;6.754;2024-01-25T01:20:59;102415.56;;;8.58;80.57
28004;BME280;15330;51.234;6.754;2024-01-25T01:23:25;102419.72;;;8.47;80.98
28004;BME280;15330;51.234;6.754;2024-01-25T01:25:50;102417.34;;;8.40;81.19
28004;BME280;15330;51.234;6.754;2024-01-25T01:28:15;102417.19;;;8.26;82.11
28004;BME280;15330;51.234;6.754;2024-01-25T01:30:41;102418.91;;;8.27;81.86
28004;BME280;15330;51.234;6.754;2024-01-25T01:33:10;102423.22;;;8.30;82.25
28004;BME280;15330;51.234;6.754;2024-01-25T01:35:35;102418.75;;;8.30;82.07
28004;BME280;15330;51.234;6.754;2024-01-25T01:38:00;102431.13;;;8.31;81.72
28004;BME280;15330;51.234;6.754;2024-01-25T01:40:26;102428.72;;;8.27;81.92
28004;BME280;15330;51.234;6.754;2024-01-25T01:42:51;102435.44;;;8.34;81.61
28004;BME280;15330;51.234;6.754;2024-01-25T01:45:17;102434.03;;;8.27;82.19
28004;BME280;15330;51.234;6.754;2024-01-25T01:47:42;102436.56;;;8.12;82.48
28004;BME280;15330;51.234;6.754;2024-01-25T01:50:09;102431.38;;;8.27;82.32
28004;BME280;15330;51.234;6.754;2024-01-25T01:52:34;102438.28;;;8.31;81.47
28004;BME280;15330;51.234;6.754;2024-01-25T01:55:00;102438.47;;;8.09;82.71
28004;BME280;15330;51.234;6.754;2024-01-25T01:57:26;102436.72;;;8.27;82.14
28004;BME280;15330;51.234;6.754;2024-01-25T01:59:52;102451.78;;;8.28;82.17
28004;BME280;15330;51.234;6.754;2024-01-25T02:02:17;102451.38;;;8.18;82.66
28004;BME280;15330;51.234;6.754;2024-01-25T02:04:43;102453.56;;;8.10;83.16
28004;BME280;15330;51.234;6.754;2024-01-25T02:07:09;102455.00;;;8.34;81.98
28004;BME280;15330;51.234;6.754;2024-01-25T02:09:34;102447.94;;;8.33;81.81
28004;BME280;15330;51.234;6.754;2024-01-25T02:12:01;102451.47;;;8.34;81.46
28004;BME280;15330;51.234;6.754;2024-01-25T02:14:27;102460.56;;;8.30;81.83
28004;BME280;15330;51.234;6.754;2024-01-25T02:16:53;102462.13;;;8.34;81.92
28004;BME280;15330;51.234;6.754;2024-01-25T02:19:18;102458.91;;;8.27;82.28
28004;BME280;15330;51.234;6.754;2024-01-25T02:21:44;102468.41;;;8.15;82.61
28004;BME280;15330;51.234;6.754;2024-01-25T02:24:09;102479.66;;;8.22;82.49
28004;BME280;15330;51.234;6.754;2024-01-25T02:26:35;102481.81;;;8.14;82.93
28004;BME280;15330;51.234;6.754;2024-01-25T02:29:01;102482.31;;;8.22;82.67
28004;BME280;15330;51.234;6.754;2024-01-25T02:31:26;102478.53;;;8.26;82.32
28004;BME280;15330;51.234;6.754;2024-01-25T02:33:52;102486.59;;;8.25;82.38
28004;BME280;15330;51.234;6.754;2024-01-25T02:36:17;102492.03;;;8.23;82.66
28004;BME280;15330;51.234;6.754;2024-01-25T02:38:43;102496.28;;;8.27;82.17
28004;BME280;15330;51.234;6.754;2024-01-25T02:41:08;102502.16;;;8.34;81.96
28004;BME280;15330;51.234;6.754;2024-01-25T02:43:33;102506.22;;;8.06;83.48
28004;BME280;15330;51.234;6.754;2024-01-25T02:45:59;102507.19;;;8.23;82.91
28004;BME280;15330;51.234;6.754;2024-01-25T02:48:24;102497.69;;;8.34;82.20
28004;BME280;15330;51.234;6.754;2024-01-25T02:50:49;102495.97;;;8.33;82.19
28004;BME280;15330;51.234;6.754;2024-01-25T02:53:15;102498.94;;;8.27;82.55
28004;BME280;15330;51.234;6.754;2024-01-25T02:55:40;102510.63;;;8.44;82.10
28004;BME280;15330;51.234;6.754;2024-01-25T02:58:05;102506.38;;;8.39;82.45
28004;BME280;15330;51.234;6.754;2024-01-25T03:00:31;102507.19;;;8.23;82.91
28004;BME280;15330;51.234;6.754;2024-01-25T03:02:56;102500.19;;;8.39;82.22
28004;BME280;15330;51.234;6.754;2024-01-25T03:05:21;102505.53;;;8.37;82.07
28004;BME280;15330;51.234;6.754;2024-01-25T03:07:47;102502.47;;;8.47;81.86
28004;BME280;15330;51.234;6.754;2024-01-25T03:10:12;102494.47;;;8.28;82.38
28004;BME280;15330;51.234;6.754;2024-01-25T03:12:38;102494.50;;;8.09;83.20
28004;BME280;15330;51.234;6.754;2024-01-25T03:15:04;102490.47;;;8.19;82.77
28004;BME280;15330;51.234;6.754;2024-01-25T03:17:30;102491.19;;;8.23;82.60
28004;BME280;15330;51.234;6.754;2024-01-25T03:19:55;102484.88;;;8.06;82.74
28004;BME280;15330;51.234;6.754;2024-01-25T03:22:20;102483.41;;;7.99;83.20
28004;BME280;15330;51.234;6.754;2024-01-25T03:24:47;102479.25;;;7.93;83.36
28004;BME280;15330;51.234;6.754;2024-01-25T03:27:13;102493.81;;;7.86;83.71
28004;BME280;15330;51.234;6.754;2024-01-25T03:29:42;102486.91;;;7.82;84.34
28004;BME280;15330;51.234;6.754;2024-01-25T03:32:09;102491.09;;;7.69;84.42
28004;BME280;15330;51.234;6.754;2024-01-25T03:34:34;102494.84;;;7.65;84.79
28004;BME280;15330;51.234;6.754;2024-01-25T03:37:00;102505.69;;;7.60;85.11
28004;BME280;15330;51.234;6.754;2024-01-25T03:39:25;102501.47;;;7.75;83.99
28004;BME280;15330;51.234;6.754;2024-01-25T03:41:50;102501.38;;;7.77;83.92
28004;BME280;15330;51.234;6.754;2024-01-25T03:44:16;102504.94;;;7.77;83.99
28004;BME280;15330;51.234;6.754;2024-01-25T03:46:41;102495.13;;;7.59;84.84
28004;BME280;15330;51.234;6.754;2024-01-25T03:49:06;102505.72;;;7.79;83.79
28004;BME280;15330;51.234;6.754;2024-01-25T03:51:32;102500.31;;;7.81;83.67
28004;BME280;15330;51.234;6.754;2024-01-25T03:53:57;102508.78;;;7.51;84.89
28004;BME280;15330;51.234;6.754;2024-01-25T03:56:23;102501.31;;;7.59;84.70
28004;BME280;15330;51.234;6.754;2024-01-25T03:58:49;102503.94;;;7.61;84.32
28004;BME280;15330;51.234;6.754;2024-01-25T04:01:15;102514.13;;;7.51;85.30
28004;BME280;15330;51.234;6.754;2024-01-25T04:03:40;102510.94;;;7.43;85.07
28004;BME280;15330;51.234;6.754;2024-01-25T04:06:06;102505.84;;;7.57;84.39
28004;BME280;15330;51.234;6.754;2024-01-25T04:08:31;102516.50;;;7.57;84.67
28004;BME280;15330;51.234;6.754;2024-01-25T04:10:57;102494.84;;;7.65;84.25
28004;BME280;15330;51.234;6.754;2024-01-25T04:13:22;102515.66;;;7.57;84.42
28004;BME280;15330;51.234;6.754;2024-01-25T04:15:48;102519.91;;;7.61;84.54
28004;BME280;15330;51.234;6.754;2024-01-25T04:18:13;102522.59;;;7.40;84.93
28004;BME280;15330;51.234;6.754;2024-01-25T04:20:39;102524.19;;;7.26;85.82
28004;BME280;15330;51.234;6.754;2024-01-25T04:23:05;102520.63;;;7.45;85.27
28004;BME280;15330;51.234;6.754;2024-01-25T04:25:30;102512.97;;;7.57;84.61
28004;BME280;15330;51.234;6.754;2024-01-25T04:27:56;102530.41;;;7.64;84.53
28004;BME280;15330;51.234;6.754;2024-01-25T04:30:21;102525.38;;;7.58;84.72
28004;BME280;15330;51.234;6.754;2024-01-25T04:32:47;102525.38;;;7.58;84.13
28004;BME280;15330;51.234;6.754;2024-01-25T04:35:12;102529.09;;;7.54;84.49
28004;BME280;15330;51.234;6.754;2024-01-25T04:37:37;102525.72;;;7.50;84.64
28004;BME280;15330;51.234;6.754;2024-01-25T04:40:03;102535.25;;;7.56;84.84
28004;BME280;15330;51.234;6.754;2024-01-25T04:42:30;102537.31;;;7.49;84.65
28004;BME280;15330;51.234;6.754;2024-01-25T04:44:55;102536.75;;;7.42;85.04
28004;BME280;15330;51.234;6.754;2024-01-25T04:47:21;102533.94;;;7.45;85.05
28004;BME280;15330;51.234;6.754;2024-01-25T04:49:47;102540.19;;;7.44;85.22
28004;BME280;15330;51.234;6.754;2024-01-25T04:52:12;102532.91;;;7.29;85.48
28004;BME280;15330;51.234;6.754;2024-01-25T04:54:37;102530.38;;;7.26;85.82
28004;BME280;15330;51.234;6.754;2024-01-25T04:57:03;102530.09;;;7.32;85.62
28004;BME280;15330;51.234;6.754;2024-01-25T04:59:32;102530.38;;;7.26;85.71
28004;BME280;15330;51.234;6.754;2024-01-25T05:01:58;102529.97;;;7.35;85.26
28004;BME280;15330;51.234;6.754;2024-01-25T05:04:23;102538.81;;;7.36;85.12
28004;BME280;15330;51.234;6.754;2024-01-25T05:06:48;102539.00;;;7.31;85.36
28004;BME280;15330;51.234;6.754;2024-01-25T05:09:14;102540.91;;;7.29;85.71
28004;BME280;15330;51.234;6.754;2024-01-25T05:11:39;102551.91;;;7.40;85.48
28004;BME280;15330;51.234;6.754;2024-01-25T05:14:05;102549.56;;;7.53;84.82
28004;BME280;15330;51.234;6.754;2024-01-25T05:16:31;102547.66;;;7.36;85.00
28004;BME280;15330;51.234;6.754;2024-01-25T05:18:56;102546.19;;;7.50;84.59
28004;BME280;15330;51.234;6.754;2024-01-25T05:21:22;102539.91;;;7.51;84.77
28004;BME280;15330;51.234;6.754;2024-01-25T05:23:47;102539.91;;;7.51;84.54
28004;BME280;15330;51.234;6.754;2024-01-25T05:26:12;102539.22;;;7.66;84.09
28004;BME280;15330;51.234;6.754;2024-01-25T05:28:38;102533.81;;;7.67;84.05
28004;BME280;15330;51.234;6.754;2024-01-25T05:31:03;102536.31;;;7.52;84.42
28004;BME280;15330;51.234;6.754;2024-01-25T05:33:29;102530.41;;;7.64;84.13
28004;BME280;15330;51.234;6.754;2024-01-25T05:35:54;102529.53;;;7.44;84.19
28004;BME280;15330;51.234;6.754;2024-01-25T05:38:19;102534.63;;;7.30;84.77
28004;BME280;15330;51.234;6.754;2024-01-25T05:40:45;102532.19;;;7.26;85.10
28004;BME280;15330;51.234;6.754;2024-01-25T05:43:10;102536.75;;;7.22;85.03
28004;BME280;15330;51.234;6.754;2024-01-25T05:45:36;102535.13;;;7.19;85.81
28004;BME280;15330;51.234;6.754;2024-01-25T05:48:01;102539.38;;;7.03;85.75
28004;BME280;15330;51.234;6.754;2024-01-25T05:50:26;102531.91;;;7.11;85.75
28004;BME280;15330;51.234;6.754;2024-01-25T05:52:52;102526.31;;;7.17;85.54
28004;BME280;15330;51.234;6.754;2024-01-25T05:55:17;102531.03;;;7.11;85.18
28004;BME280;15330;51.234;6.754;2024-01-25T05:57:43;102523.25;;;7.06;85.03
28004;BME280;15330;51.234;6.754;2024-01-25T06:00:12;102529.03;;;6.95;86.04
28004;BME280;15330;51.234;6.754;2024-01-25T06:02:38;102528.91;;;6.98;85.79
28004;BME280;15330;51.234;6.754;2024-01-25T06:05:04;102536.16;;;6.95;85.62
28004;BME280;15330;51.234;6.754;2024-01-25T06:07:29;102547.56;;;6.98;86.52
28004;BME280;15330;51.234;6.754;2024-01-25T06:09:55;102547.75;;;7.54;86.72
28004;BME280;15330;51.234;6.754;2024-01-25T06:12:20;102539.13;;;7.49;86.63
28004;BME280;15330;51.234;6.754;2024-01-25T06:14:46;102542.56;;;7.51;83.85
28004;BME280;15330;51.234;6.754;2024-01-25T06:17:11;102549.75;;;7.30;84.32
28004;BME280;15330;51.234;6.754;2024-01-25T06:19:37;102565.53;;;6.93;84.86
28004;BME280;15330;51.234;6.754;2024-01-25T06:22:02;102558.19;;;6.98;85.14
28004;BME280;15330;51.234;6.754;2024-01-25T06:24:28;102562.38;;;6.84;85.33
28004;BME280;15330;51.234;6.754;2024-01-25T06:26:53;102565.63;;;6.70;85.53
28004;BME280;15330;51.234;6.754;2024-01-25T06:29:19;102560.81;;;6.58;86.82
28004;BME280;15330;51.234;6.754;2024-01-25T06:31:45;102559.69;;;6.63;86.56
28004;BME280;15330;51.234;6.754;2024-01-25T06:34:10;102564.53;;;6.96;85.18
28004;BME280;15330;51.234;6.754;2024-01-25T06:36:36;102569.38;;;6.86;85.14
28004;BME280;15330;51.234;6.754;2024-01-25T06:39:02;102568.03;;;6.76;85.43
28004;BME280;15330;51.234;6.754;2024-01-25T06:41:29;102577.56;;;6.82;85.25
28004;BME280;15330;51.234;6.754;2024-01-25T06:43:54;102570.81;;;6.73;85.36
28004;BME280;15330;51.234;6.754;2024-01-25T06:46:20;102578.81;;;6.73;85.36
28004;BME280;15330;51.234;6.754;2024-01-25T06:48:45;102581.53;;;6.71;85.66
28004;BME280;15330;51.234;6.754;2024-01-25T06:51:10;102590.16;;;6.56;86.06
28004;BME280;15330;51.234;6.754;2024-01-25T06:53:36;102596.09;;;6.63;85.91
28004;BME280;15330;51.234;6.754;2024-01-25T06:56:01;102596.34;;;6.57;86.00
28004;BME280;15330;51.234;6.754;2024-01-25T06:58:27;102593.63;;;6.36;87.43
28004;BME280;15330;51.234;6.754;2024-01-25T07:00:52;102593.31;;;6.66;86.68
28004;BME280;15330;51.234;6.754;2024-01-25T07:03:18;102592.94;;;6.75;86.58
28004;BME280;15330;51.234;6.754;2024-01-25T07:05:44;102592.41;;;6.87;86.05
28004;BME280;15330;51.234;6.754;2024-01-25T07:08:09;102592.31;;;7.11;85.01
28004;BME280;15330;51.234;6.754;2024-01-25T07:10:39;102600.97;;;7.16;85.35
28004;BME280;15330;51.234;6.754;2024-01-25T07:13:04;102599.34;;;7.12;84.76
28004;BME280;15330;51.234;6.754;2024-01-25T07:15:30;102605.50;;;7.14;84.19
28004;BME280;15330;51.234;6.754;2024-01-25T07:17:55;102613.59;;;7.31;84.12
28004;BME280;15330;51.234;6.754;2024-01-25T07:20:20;102609.81;;;7.16;84.15
28004;BME280;15330;51.234;6.754;2024-01-25T07:22:46;102621.72;;;7.08;84.83
28004;BME280;15330;51.234;6.754;2024-01-25T07:25:11;102609.00;;;6.94;84.95
28004;BME280;15330;51.234;6.754;2024-01-25T07:27:36;102614.41;;;7.13;84.31
28004;BME280;15330;51.234;6.754;2024-01-25T07:30:02;102608.19;;;6.92;85.31
28004;BME280;15330;51.234;6.754;2024-01-25T07:32:27;102611.00;;;7.09;84.49
28004;BME280;15330;51.234;6.754;2024-01-25T07:34:54;102598.47;;;6.91;85.49
28004;BME280;15330;51.234;6.754;2024-01-25T07:37:19;102600.09;;;6.73;85.80
28004;BME280;15330;51.234;6.754;2024-01-25T07:39:45;102612.44;;;6.96;85.16
28004;BME280;15330;51.234;6.754;2024-01-25T07:42:11;102611.34;;;7.42;86.24
28004;BME280;15330;51.234;6.754;2024-01-25T07:44:37;102608.41;;;7.28;84.20
28004;BME280;15330;51.234;6.754;2024-01-25T07:47:03;102612.16;;;7.04;84.78
28004;BME280;15330;51.234;6.754;2024-01-25T07:49:29;102616.38;;;6.87;84.95
28004;BME280;15330;51.234;6.754;2024-01-25T07:51:54;102621.50;;;6.92;85.39
28004;BME280;15330;51.234;6.754;2024-01-25T07:54:21;102626.31;;;7.04;84.78
28004;BME280;15330;51.234;6.754;2024-01-25T07:56:47;102626.78;;;7.34;83.54
28004;BME280;15330;51.234;6.754;2024-01-25T07:59:12;102629.13;;;6.79;85.93
28004;BME280;15330;51.234;6.754;2024-01-25T08:01:38;102637.25;;;7.18;84.40
28004;BME280;15330;51.234;6.754;2024-01-25T08:04:03;102630.09;;;7.19;84.48
28004;BME280;15330;51.234;6.754;2024-01-25T08:06:29;102639.97;;;7.37;84.19
28004;BME280;15330;51.234;6.754;2024-01-25T08:08:54;102631.03;;;7.79;81.92
28004;BME280;15330;51.234;6.754;2024-01-25T08:11:20;102623.84;;;8.57;79.31
28004;BME280;15330;51.234;6.754;2024-01-25T08:13:46;102631.53;;;8.82;77.98
28004;BME280;15330;51.234;6.754;2024-01-25T08:16:13;102627.38;;;8.94;77.97
28004;BME280;15330;51.234;6.754;2024-01-25T08:18:39;102627.09;;;9.00;77.56
28004;BME280;15330;51.234;6.754;2024-01-25T08:21:04;102641.16;;;8.29;79.64
28004;BME280;15330;51.234;6.754;2024-01-25T08:23:30;102636.38;;;7.98;80.78
28004;BME280;15330;51.234;6.754;2024-01-25T08:25:55;102639.91;;;7.99;81.69
28004;BME280;15330;51.234;6.754;2024-01-25T08:28:21;102637.06;;;8.22;80.97
28004;BME280;15330;51.234;6.754;2024-01-25T08:30:47;102640.03;;;8.35;80.57
28004;BME280;15330;51.234;6.754;2024-01-25T08:33:13;102635.03;;;8.27;80.48
28004;BME280;15330;51.234;6.754;2024-01-25T08:35:38;102638.09;;;7.99;81.83
28004;BME280;15330;51.234;6.754;2024-01-25T08:38:06;102634.56;;;7.99;81.90
28004;BME280;15330;51.234;6.754;2024-01-25T08:40:32;102643.75;;;7.93;82.08
28004;BME280;15330;51.234;6.754;2024-01-25T08:42:57;102645.81;;;8.05;81.79
28004;BME280;15330;51.234;6.754;2024-01-25T08:45:23;102634.41;;;8.22;81.39
28004;BME280;15330;51.234;6.754;2024-01-25T08:47:48;102631.25;;;8.31;80.87
28004;BME280;15330;51.234;6.754;2024-01-25T08:50:14;102620.84;;;8.46;80.35
28004;BME280;15330;51.234;6.754;2024-01-25T08:52:40;102623.25;;;8.31;80.87
28004;BME280;15330;51.234;6.754;2024-01-25T08:55:07;102621.50;;;8.51;80.35
28004;BME280;15330;51.234;6.754;2024-01-25T08:57:32;102622.63;;;8.26;81.10
28004;BME280;15330;51.234;6.754;2024-01-25T08:59:58;102620.69;;;8.49;80.86
28004;BME280;15330;51.234;6.754;2024-01-25T09:02:26;102617.69;;;8.74;80.01
28004;BME280;15330;51.234;6.754;2024-01-25T09:04:54;102617.28;;;8.64;79.81
28004;BME280;15330;51.234;6.754;2024-01-25T09:07:19;102617.00;;;8.32;81.10
28004;BME280;15330;51.234;6.754;2024-01-25T09:09:45;102622.41;;;8.12;82.04
28004;BME280;15330;51.234;6.754;2024-01-25T09:12:10;102619.31;;;8.40;80.73
28004;BME280;15330;51.234;6.754;2024-01-25T09:14:38;102617.75;;;8.72;80.03
28004;BME280;15330;51.234;6.754;2024-01-25T09:17:03;102607.59;;;8.98;79.01
28004;BME280;15330;51.234;6.754;2024-01-25T09:19:28;102613.41;;;9.23;77.75
28004;BME280;15330;51.234;6.754;2024-01-25T09:21:54;102619.34;;;9.46;77.43
28004;BME280;15330;51.234;6.754;2024-01-25T09:24:20;102621.34;;;9.75;76.16
28004;BME280;15330;51.234;6.754;2024-01-25T09:26:46;102623.97;;;10.26;74.40
28004;BME280;15330;51.234;6.754;2024-01-25T09:29:11;102621.56;;;10.53;73.12
28004;BME280;15330;51.234;6.754;2024-01-25T09:31:36;102624.91;;;11.33;70.26
28004;BME280;15330;51.234;6.754;2024-01-25T09:34:02;102617.03;;;12.03;68.09
28004;BME280;15330;51.234;6.754;2024-01-25T09:36:27;102612.16;;;12.78;65.40
28004;BME280;15330;51.234;6.754;2024-01-25T09:38:53;102617.78;;;12.88;63.96
28004;BME280;15330;51.234;6.754;2024-01-25T09:41:18;102625.09;;;12.58;66.24
28004;BME280;15330;51.234;6.754;2024-01-25T09:43:43;102644.13;;;12.41;66.15
28004;BME280;15330;51.234;6.754;2024-01-25T09:46:13;102653.56;;;12.34;66.83
28004;BME280;15330;51.234;6.754;2024-01-25T09:48:38;102662.09;;;12.12;67.73
28004;BME280;15330;51.234;6.754;2024-01-25T09:51:05;102660.19;;;11.85;67.78
28004;BME280;15330;51.234;6.754;2024-01-25T09:53:32;102656.72;;;11.39;69.58
28004;BME280;15330;51.234;6.754;2024-01-25T09:56:08;102655.84;;;11.24;70.91
28004;BME280;15330;51.234;6.754;2024-01-25T09:58:42;102667.13;;;13.14;64.50
28004;BME280;15330;51.234;6.754;2024-01-25T10:01:14;102670.97;;;14.52;60.08
28004;BME280;15330;51.234;6.754;2024-01-25T10:03:47;102666.97;;;14.44;59.71
28004;BME280;15330;51.234;6.754;2024-01-25T10:06:13;102665.72;;;13.99;60.99
28004;BME280;15330;51.234;6.754;2024-01-25T10:08:39;102658.97;;;13.93;61.46
28004;BME280;15330;51.234;6.754;2024-01-25T10:11:06;102656.47;;;14.03;60.86
28004;BME280;15330;51.234;6.754;2024-01-25T10:13:31;102655.38;;;13.55;62.10
28004;BME280;15330;51.234;6.754;2024-01-25T10:15:57;102653.50;;;12.63;64.76
28004;BME280;15330;51.234;6.754;2024-01-25T10:18:25;102652.16;;;12.55;65.10
28004;BME280;15330;51.234;6.754;2024-01-25T10:20:53;102651.75;;;12.20;66.58
28004;BME280;15330;51.234;6.754;2024-01-25T10:23:18;102653.59;;;10.86;71.51
28004;BME280;15330;51.234;6.754;2024-01-25T10:25:44;102648.69;;;11.09;71.10
28004;BME280;15330;51.234;6.754;2024-01-25T10:28:09;102654.22;;;12.38;67.22
28004;BME280;15330;51.234;6.754;2024-01-25T10:30:36;102656.69;;;12.41;65.93
28004;BME280;15330;51.234;6.754;2024-01-25T10:33:02;102649.41;;;12.97;64.29
28004;BME280;15330;51.234;6.754;2024-01-25T10:35:30;102656.03;;;11.80;68.42
28004;BME280;15330;51.234;6.754;2024-01-25T10:37:56;102650.88;;;12.61;65.90
28004;BME280;15330;51.234;6.754;2024-01-25T10:40:22;102646.88;;;13.08;63.78
28004;BME280;15330;51.234;6.754;2024-01-25T10:42:48;102641.06;;;12.74;64.65
28004;BME280;15330;51.234;6.754;2024-01-25T10:45:13;102629.44;;;13.01;64.11
28004;BME280;15330;51.234;6.754;2024-01-25T10:47:39;102629.16;;;13.18;63.47
28004;BME280;15330;51.234;6.754;2024-01-25T10:50:12;102614.25;;;13.27;62.73
28004;BME280;15330;51.234;6.754;2024-01-25T10:52:39;102619.00;;;13.36;62.63
28004;BME280;15330;51.234;6.754;2024-01-25T10:55:05;102608.13;;;13.38;62.91
28004;BME280;15330;51.234;6.754;2024-01-25T10:57:43;102608.03;;;13.78;62.28
28004;BME280;15330;51.234;6.754;2024-01-25T11:00:10;102615.38;;;11.57;67.93
28004;BME280;15330;51.234;6.754;2024-01-25T11:02:37;102608.94;;;12.31;66.45
28004;BME280;15330;51.234;6.754;2024-01-25T11:05:11;102600.19;;;12.42;66.25
28004;BME280;15330;51.234;6.754;2024-01-25T11:07:48;102607.25;;;12.16;67.34
28004;BME280;15330;51.234;6.754;2024-01-25T11:10:18;102593.34;;;12.78;64.99
28004;BME280;15330;51.234;6.754;2024-01-25T11:12:51;102594.16;;;13.58;62.95
28004;BME280;15330;51.234;6.754;2024-01-25T11:15:38;102579.13;;;13.16;63.72
28004;BME280;15330;51.234;6.754;2024-01-25T11:18:07;102573.22;;;14.00;61.69
28004;BME280;15330;51.234;6.754;2024-01-25T11:20:34;102573.06;;;12.99;64.29
28004;BME280;15330;51.234;6.754;2024-01-25T11:23:04;102575.81;;;12.45;67.50
28004;BME280;15330;51.234;6.754;2024-01-25T11:25:31;102579.75;;;11.70;67.13
28004;BME280;15330;51.234;6.754;2024-01-25T11:27:58;102588.31;;;11.17;70.87
28004;BME280;15330;51.234;6.754;2024-01-25T11:30:23;102590.53;;;11.25;70.36
28004;BME280;15330;51.234;6.754;2024-01-25T11:32:50;102588.88;;;11.08;71.23
28004;BME280;15330;51.234;6.754;2024-01-25T11:35:16;102575.78;;;10.26;72.72
28004;BME280;15330;51.234;6.754;2024-01-25T11:37:45;102567.69;;;10.28;73.15
28004;BME280;15330;51.234;6.754;2024-01-25T11:40:11;102558.75;;;10.11;74.17
28004;BME280;15330;51.234;6.754;2024-01-25T11:42:38;102548.06;;;9.95;74.17
28004;BME280;15330;51.234;6.754;2024-01-25T11:45:05;102552.78;;;9.90;74.73
28004;BME280;15330;51.234;6.754;2024-01-25T11:47:33;102550.72;;;9.79;75.43
28004;BME280;15330;51.234;6.754;2024-01-25T11:49:59;102558.09;;;9.74;75.61
28004;BME280;15330;51.234;6.754;2024-01-25T11:52:24;102551.41;;;9.99;75.15
28004;BME280;15330;51.234;6.754;2024-01-25T11:54:51;102555.47;;;10.22;73.57
28004;BME280;15330;51.234;6.754;2024-01-25T11:57:17;102560.56;;;10.11;73.81
28004;BME280;15330;51.234;6.754;2024-01-25T11:59:43;102561.94;;;9.53;75.80
28004;BME280;15330;51.234;6.754;2024-01-25T12:02:12;102555.34;;;9.60;75.34
28004;BME280;15330;51.234;6.754;2024-01-25T12:04:38;102528.88;;;9.38;76.39
28004;BME280;15330;51.234;6.754;2024-01-25T12:07:04;102537.56;;;9.26;77.34
28004;BME280;15330;51.234;6.754;2024-01-25T12:09:30;102521.34;;;9.29;76.99
28004;BME280;15330;51.234;6.754;2024-01-25T12:11:55;102515.91;;;9.30;77.28
28004;BME280;15330;51.234;6.754;2024-01-25T12:14:20;102513.00;;;9.35;76.59
28004;BME280;15330;51.234;6.754;2024-01-25T12:16:46;102515.56;;;9.54;76.52
28004;BME280;15330;51.234;6.754;2024-01-25T12:19:11;102528.03;;;9.20;77.29
28004;BME280;15330;51.234;6.754;2024-01-25T12:21:37;102531.66;;;9.19;77.39
28004;BME280;15330;51.234;6.754;2024-01-25T12:24:02;102532.28;;;9.24;77.41
28004;BME280;15330;51.234;6.754;2024-01-25T12:26:28;102540.50;;;9.37;77.23
28004;BME280;15330;51.234;6.754;2024-01-25T12:28:59;102538.66;;;9.22;77.55
28004;BME280;15330;51.234;6.754;2024-01-25T12:31:25;102531.06;;;8.97;78.31
28004;BME280;15330;51.234;6.754;2024-01-25T12:33:50;102501.75;;;9.13;78.37
28004;BME280;15330;51.234;6.754;2024-01-25T12:36:15;102501.03;;;8.92;79.02
28004;BME280;15330;51.234;6.754;2024-01-25T12:38:41;102513.53;;;9.08;78.34
28004;BME280;15330;51.234;6.754;2024-01-25T12:41:06;102522.38;;;9.26;77.71
28004;BME280;15330;51.234;6.754;2024-01-25T12:43:32;102528.97;;;9.37;77.41
28004;BME280;15330;51.234;6.754;2024-01-25T12:45:57;102527.28;;;9.51;76.94
28004;BME280;15330;51.234;6.754;2024-01-25T12:48:23;102507.91;;;9.30;77.18
28004;BME280;15330;51.234;6.754;2024-01-25T12:50:48;102511.69;;;9.26;78.25